createdAt,value
2022-09-28T00:03:32.073Z,8.86
2022-09-28T00:08:35.992Z,8.59
2022-09-28T00:13:38.866Z,8.68
2022-09-28T00:18:43.602Z,8.57
2022-09-28T00:24:09.659Z,8.68
2022-09-28T00:29:21.118Z,8.77
2022-09-28T00:34:25.363Z,8.85
2022-09-28T00:39:28.436Z,8.86
2022-09-28T00:44:43.871Z,8.79
2022-09-28T00:49:52.045Z,8.71
2022-09-28T00:54:57.149Z,8.59
2022-09-28T01:00:01.590Z,8.60
2022-09-28T01:05:08.277Z,8.58
2022-09-28T01:10:11.563Z,8.57
2022-09-28T01:15:15.591Z,8.57
2022-09-28T01:20:37.484Z,8.46
2022-09-28T01:25:46.781Z,8.36
2022-09-28T01:31:03.287Z,8.34
2022-09-28T01:36:10.870Z,8.25
2022-09-28T01:41:17.444Z,8.21
2022-09-28T01:46:25.580Z,8.15
2022-09-28T01:51:33.425Z,8.19
2022-09-28T01:56:41.302Z,8.15
2022-09-28T02:01:52.880Z,8.18
2022-09-28T02:07:01.175Z,8.19
2022-09-28T02:12:11.912Z,8.29
2022-09-28T02:17:17.179Z,8.40
2022-09-28T02:22:26.115Z,8.59
2022-09-28T02:27:42.548Z,8.73
2022-09-28T02:32:51.060Z,8.73
2022-09-28T02:37:55.994Z,8.74
2022-09-28T02:43:07.740Z,8.72
2022-09-28T02:48:41.308Z,8.59
2022-09-28T02:54:01.820Z,8.49
2022-09-28T02:59:14.588Z,8.38
2022-09-28T03:04:27.734Z,8.33
2022-09-28T03:09:35.911Z,8.39
2022-09-28T03:14:39.057Z,8.33
2022-09-28T03:19:44.148Z,8.33
2022-09-28T03:24:46.949Z,8.28
2022-09-28T03:29:49.966Z,8.20
2022-09-28T03:34:54.526Z,7.96
2022-09-28T03:39:57.320Z,7.99
2022-09-28T03:45:00.132Z,7.71
2022-09-28T03:50:04.590Z,7.64
2022-09-28T03:55:07.975Z,7.57
2022-09-28T04:00:11.916Z,7.77
2022-09-28T04:05:18.991Z,7.75
2022-09-28T04:10:22.067Z,7.65
2022-09-28T04:15:25.415Z,7.73
2022-09-28T04:20:29.956Z,7.89
2022-09-28T04:25:39.627Z,8.04
2022-09-28T04:30:42.799Z,7.95
2022-09-28T04:35:47.095Z,8.02
2022-09-28T04:40:50.512Z,7.86
2022-09-28T04:45:53.413Z,8.07
2022-09-28T04:51:01.677Z,8.13
2022-09-28T04:56:07.011Z,7.93
2022-09-28T05:01:13.581Z,7.76
2022-09-28T05:06:32.989Z,7.72
2022-09-28T05:11:40.650Z,7.74
2022-09-28T05:16:48.614Z,8.01
2022-09-28T05:22:06.113Z,8.04
2022-09-28T05:27:15.830Z,7.47
2022-09-28T05:32:21.885Z,7.99
2022-09-28T05:37:49.387Z,7.65
2022-09-28T05:42:52.530Z,7.75
2022-09-28T05:47:55.400Z,7.86
2022-09-28T05:53:01.681Z,7.76
2022-09-28T05:58:19.346Z,7.84
2022-09-28T06:03:22.540Z,7.99
2022-09-28T06:08:26.839Z,8.40
2022-09-28T06:13:38.614Z,8.58
2022-09-28T06:18:42.347Z,8.89
2022-09-28T06:23:49.651Z,9.20
2022-09-28T06:28:54.215Z,9.19
2022-09-28T06:33:57.334Z,9.30
2022-09-28T06:39:01.570Z,9.41
2022-09-28T06:44:05.004Z,9.38
2022-09-28T06:49:30.293Z,9.76
2022-09-28T06:54:53.120Z,9.87
2022-09-28T07:00:06.085Z,9.79
2022-09-28T07:05:13.527Z,9.80
2022-09-28T07:10:36.027Z,10.19
2022-09-28T07:15:57.370Z,9.91
2022-09-28T07:21:02.805Z,9.99
2022-09-28T07:26:09.381Z,9.89
2022-09-28T07:31:26.269Z,8.98
2022-09-28T07:36:39.101Z,9.70
2022-09-28T07:41:44.256Z,10.40
2022-09-28T07:46:47.372Z,10.54
2022-09-28T07:51:57.553Z,10.53
2022-09-28T07:57:15.239Z,10.60
2022-09-28T08:02:44.694Z,10.48
2022-09-28T08:07:53.041Z,10.70
2022-09-28T08:13:02.032Z,10.87
2022-09-28T08:18:26.280Z,10.79
2022-09-28T08:23:29.153Z,10.68
2022-09-28T08:28:34.288Z,10.14
2022-09-28T08:33:43.120Z,10.25
2022-09-28T08:39:09.345Z,10.83
2022-09-28T08:50:11.107Z,10.98
2022-09-28T08:55:37.841Z,11.28
2022-09-28T09:00:46.818Z,11.42
2022-09-28T09:06:04.442Z,11.28
2022-09-28T09:11:43.803Z,12.32
2022-09-28T09:17:00.381Z,12.59
2022-09-28T09:22:40.672Z,12.54
2022-09-28T09:27:59.715Z,12.17
2022-09-28T09:33:35.794Z,12.56
2022-09-28T09:39:08.105Z,12.50
2022-09-28T09:44:48.802Z,12.09
2022-09-28T09:50:25.253Z,12.41
2022-09-28T09:55:35.215Z,12.36
2022-09-28T10:01:06.830Z,12.37
2022-09-28T10:06:40.212Z,12.44
2022-09-28T10:11:47.710Z,12.23
2022-09-28T10:16:53.418Z,12.39
2022-09-28T10:22:24.212Z,12.33
2022-09-28T10:27:32.681Z,12.88
2022-09-28T10:32:41.323Z,13.00
2022-09-28T10:37:52.253Z,12.58
2022-09-28T10:43:22.876Z,12.78
2022-09-28T10:48:29.463Z,12.22
2022-09-28T10:53:36.963Z,12.62
2022-09-28T10:58:42.116Z,12.88
2022-09-28T11:03:53.304Z,13.31
2022-09-28T11:08:59.564Z,13.62
2022-09-28T11:14:04.686Z,13.69
2022-09-28T11:19:29.432Z,13.51
2022-09-28T11:24:33.996Z,13.25
2022-09-28T11:29:42.745Z,12.74
2022-09-28T11:35:17.461Z,12.87
2022-09-28T11:40:31.480Z,12.93
2022-09-28T11:45:47.694Z,12.54
2022-09-28T11:50:53.297Z,12.20
2022-09-28T11:56:08.665Z,12.95
2022-09-28T12:01:23.115Z,12.93
2022-09-28T12:06:53.329Z,13.25
2022-09-28T12:12:05.198Z,13.04
2022-09-28T12:17:26.577Z,12.89
2022-09-28T12:22:36.375Z,12.94
2022-09-28T12:27:47.256Z,12.88
2022-09-28T12:32:56.351Z,12.85
2022-09-28T12:38:18.222Z,12.74
2022-09-28T12:43:57.593Z,12.80
2022-09-28T12:54:51.664Z,12.59
2022-09-28T13:00:03.717Z,12.85
2022-09-28T13:05:25.273Z,12.78
2022-09-28T13:10:34.712Z,13.23
2022-09-28T13:15:44.980Z,13.50
2022-09-28T13:21:04.836Z,13.20
2022-09-28T13:26:17.847Z,12.86
2022-09-28T13:31:29.151Z,12.68
2022-09-28T13:36:39.293Z,12.88
2022-09-28T13:41:50.574Z,12.67
2022-09-28T13:47:20.525Z,12.47
2022-09-28T13:52:35.677Z,12.47
2022-09-28T13:57:46.316Z,12.04
2022-09-28T14:02:58.778Z,11.87
2022-09-28T14:08:30.997Z,11.94
2022-09-28T14:14:01.339Z,12.10
2022-09-28T14:19:09.148Z,12.27
2022-09-28T14:24:30.254Z,12.28
2022-09-28T14:29:36.486Z,12.37
2022-09-28T14:34:44.031Z,12.31
2022-09-28T14:40:05.776Z,12.35
2022-09-28T14:45:35.820Z,12.28
2022-09-28T14:50:40.391Z,12.10
2022-09-28T14:55:51.138Z,12.13
2022-09-28T15:01:01.597Z,12.07
2022-09-28T15:06:06.016Z,12.12
2022-09-28T15:11:16.683Z,11.98
2022-09-28T15:16:24.809Z,11.97
2022-09-28T15:21:36.354Z,11.90
2022-09-28T15:26:39.066Z,11.85
2022-09-28T15:31:41.927Z,11.84
2022-09-28T15:36:47.109Z,11.69
2022-09-28T15:41:51.637Z,11.66
2022-09-28T15:47:09.451Z,11.63
2022-09-28T15:52:36.430Z,11.69
2022-09-28T15:57:41.089Z,11.57
2022-09-28T16:03:00.291Z,11.53
2022-09-28T16:08:06.010Z,11.35
2022-09-28T16:13:21.080Z,11.13
2022-09-28T16:18:25.474Z,11.03
2022-09-28T16:23:33.244Z,10.92
2022-09-28T16:28:55.879Z,10.81
2022-09-28T16:34:02.242Z,10.85
2022-09-28T16:39:06.341Z,10.93
2022-09-28T16:44:17.150Z,10.81
2022-09-28T16:49:20.035Z,10.69
2022-09-28T16:54:43.115Z,10.55
2022-09-28T16:59:45.875Z,10.34
2022-09-28T17:04:48.664Z,10.26
2022-09-28T17:09:52.818Z,10.26
2022-09-28T17:14:56.442Z,10.20
2022-09-28T17:19:59.387Z,10.09
2022-09-28T17:25:03.572Z,10.02
2022-09-28T17:30:07.735Z,9.94
2022-09-28T17:35:24.275Z,9.83
2022-09-28T17:40:31.470Z,9.79
2022-09-28T17:45:39.461Z,9.70
2022-09-28T17:50:46.669Z,9.67
2022-09-28T17:55:51.530Z,9.60
2022-09-28T18:00:54.456Z,9.56
2022-09-28T18:06:03.333Z,9.61
2022-09-28T18:11:07.691Z,9.60
2022-09-28T18:16:11.003Z,9.56
2022-09-28T18:21:17.898Z,9.46
2022-09-28T18:26:22.244Z,9.41
2022-09-28T18:31:25.494Z,9.28
2022-09-28T18:36:33.234Z,9.23
2022-09-28T18:41:37.743Z,9.15
2022-09-28T18:46:42.947Z,9.09
2022-09-28T18:51:45.937Z,9.12
2022-09-28T18:56:51.257Z,9.07
2022-09-28T19:01:54.367Z,9.01
2022-09-28T19:06:57.218Z,8.95
2022-09-28T19:12:01.953Z,8.90
2022-09-28T19:17:04.899Z,8.85
2022-09-28T19:22:07.646Z,8.77
2022-09-28T19:27:12.169Z,8.74
2022-09-28T19:32:15.354Z,8.76
2022-09-28T19:37:18.173Z,8.75
2022-09-28T19:42:22.553Z,8.74
2022-09-28T19:47:25.618Z,8.65
2022-09-28T19:52:28.515Z,8.64
2022-09-28T19:57:34.211Z,8.61
2022-09-28T20:02:37.142Z,8.64
2022-09-28T20:07:40.053Z,8.63
2022-09-28T20:12:44.437Z,8.60
2022-09-28T20:17:47.542Z,8.58
2022-09-28T20:22:50.454Z,8.72
2022-09-28T20:27:55.139Z,8.75
2022-09-28T20:32:58.102Z,8.74
2022-09-28T20:38:07.882Z,8.74
2022-09-28T20:43:12.348Z,8.69
2022-09-28T20:48:15.292Z,8.58
2022-09-28T20:53:18.121Z,8.59
2022-09-28T20:58:22.264Z,8.55
2022-09-28T21:03:25.356Z,8.48
2022-09-28T21:08:28.189Z,8.43
2022-09-28T21:13:32.332Z,8.40
2022-09-28T21:18:35.149Z,8.37
2022-09-28T21:23:38.100Z,8.33
2022-09-28T21:28:44.620Z,8.29
2022-09-28T21:33:47.573Z,8.29
2022-09-28T21:38:50.423Z,8.28
2022-09-28T21:43:54.798Z,8.29
2022-09-28T21:48:57.573Z,8.26
2022-09-28T21:54:00.379Z,8.19
2022-09-28T21:59:04.595Z,8.26
2022-09-28T22:04:07.353Z,8.33
2022-09-28T22:09:10.166Z,8.33
2022-09-28T22:14:14.607Z,8.24
2022-09-28T22:19:17.640Z,8.29
2022-09-28T22:24:20.604Z,8.13
2022-09-28T22:29:24.918Z,8.00
2022-09-28T22:34:30.638Z,7.96
2022-09-28T22:39:37.472Z,7.89
2022-09-28T22:44:42.442Z,7.85
2022-09-28T22:49:45.173Z,7.86
2022-09-28T22:54:51.136Z,7.86
2022-09-28T22:59:55.258Z,7.89
2022-09-28T23:04:57.973Z,7.83
2022-09-28T23:10:00.699Z,7.74
2022-09-28T23:15:05.728Z,7.68
2022-09-28T23:20:09.569Z,7.70
2022-09-28T23:25:12.280Z,7.66
2022-09-28T23:30:18.180Z,7.61
2022-09-28T23:35:21.163Z,7.56
2022-09-28T23:40:24.034Z,7.47
2022-09-28T23:45:28.202Z,7.48
2022-09-28T23:50:31.190Z,7.46
2022-09-28T23:55:35.042Z,7.43
